Sturdivant, Missouri
Current Conditions -  °F | °C
As of 5:53 AM on Thursday 23 Oct 2014 (Local Time) from KPOF Reporting Station
Clear Clear  
Wind Chill: 39°   Ceiling: Unl
Heat Index: 39°   Visibility: 7mi
Dew Point: 35°   Wind: 0mph
Humidity: 86%   Direction: NA
Pressure: 30.2"   Gusts: NA
Location:  37.05°N, 90.01°W
Report Text: KPOF 231053Z AUTO 00000KT 7SM CLR 04/02 A3020 RMK AO2 SLP229 T00390017
Loading
Personal Weather Stations






























Interactive Weather Map
Tropical Storm Tracking
New forecast layout! Learn more

10-Day Weather Forecast

Advertisements
Track Severe Weather on mobile